Time;durP1;ratioP1;P1;durP2;ratioP2;P2;SDS_P1;SDS_P2;PMS_P1;PMS_P2;Temp;Humidity;BMP_temperature;BMP_pressure;BME280_temperature;BME280_humidity;BME280_pressure;Samples;Min_cycle;Max_cycle;Signal;HPM_P1;HPM_P2
2023/12/10 00:08:20;;;;;;;31.15;5.75;;;9.80;99.90;;;;;;4944682;29;20527;-92
2023/12/10 00:10:46;;;;;;;36.42;6.30;;;9.70;99.90;;;;;;4933196;29;20055;-90
2023/12/10 00:13:36;;;;;;;27.33;5.30;;;9.70;99.90;;;;;;4968560;23;20439;-92
2023/12/10 00:19:17;;;;;;;28.98;5.20;;;9.50;99.90;;;;;;4897742;29;20104;-88
2023/12/10 00:21:42;;;;;;;26.73;6.03;;;9.50;99.90;;;;;;4894931;29;20110;-90
2023/12/10 00:24:08;;;;;;;28.15;6.00;;;9.50;99.90;;;;;;4962922;23;20376;-90
2023/12/10 00:26:34;;;;;;;37.88;5.97;;;9.50;99.90;;;;;;4972870;28;20467;-91
2023/12/10 00:29:18;;;;;;;28.88;5.80;;;9.50;99.90;;;;;;4974312;28;20501;-91
2023/12/10 00:31:44;;;;;;;26.95;5.78;;;9.40;99.90;;;;;;4971349;28;20075;-92
2023/12/10 00:34:10;;;;;;;33.33;5.53;;;9.40;99.90;;;;;;4971029;28;20078;-91
2023/12/10 00:39:15;;;;;;;34.92;6.57;;;9.40;99.90;;;;;;5004227;23;20122;-91
2023/12/10 00:41:41;;;;;;;31.00;4.78;;;9.30;99.90;;;;;;4952457;29;20582;-93
2023/12/10 00:44:07;;;;;;;40.30;5.47;;;9.30;99.90;;;;;;4952527;28;20038;-91
2023/12/10 00:46:50;;;;;;;35.33;6.22;;;9.30;99.90;;;;;;4956165;29;20031;-93
2023/12/10 00:49:15;;;;;;;29.95;5.70;;;9.30;99.90;;;;;;4938664;29;20020;-91
2023/12/10 00:51:41;;;;;;;37.88;7.22;;;9.30;99.90;;;;;;4938326;29;20047;-93
2023/12/10 00:54:30;;;;;;;34.20;6.40;;;9.30;99.90;;;;;;4946290;29;20038;-92
2023/12/10 00:56:55;;;;;;;26.55;4.78;;;9.30;99.90;;;;;;4973253;28;20035;-93
2023/12/10 00:59:42;;;;;;;28.95;4.50;;;9.30;99.90;;;;;;4972127;28;20091;-92
2023/12/10 01:02:08;;;;;;;34.80;4.82;;;9.30;99.90;;;;;;4958035;28;20399;-92
2023/12/10 01:04:35;;;;;;;33.85;5.25;;;9.30;99.90;;;;;;4959738;29;20031;-92
2023/12/10 01:07:22;;;;;;;30.70;5.60;;;9.30;99.90;;;;;;4957384;29;20027;-91
2023/12/10 01:09:47;;;;;;;41.72;6.90;;;9.30;99.90;;;;;;4957609;29;20047;-91
2023/12/10 01:12:14;;;;;;;51.30;7.45;;;9.30;99.90;;;;;;4956844;29;20122;-91
2023/12/10 01:14:40;;;;;;;29.85;5.65;;;9.30;99.90;;;;;;4957130;29;20114;-90
2023/12/10 01:17:24;;;;;;;29.90;5.50;;;9.20;99.90;;;;;;4955254;28;20106;-91
2023/12/10 01:19:49;;;;;;;34.60;6.18;;;9.20;99.90;;;;;;4957867;29;20023;-92
2023/12/10 01:22:15;;;;;;;31.55;5.68;;;9.30;99.90;;;;;;4957220;29;20083;-91
2023/12/10 01:25:00;;;;;;;31.80;5.45;;;9.30;99.90;;;;;;4955944;28;20065;-92
2023/12/10 01:27:26;;;;;;;41.38;5.03;;;9.30;99.90;;;;;;4957995;29;20090;-91
2023/12/10 01:29:52;;;;;;;33.30;5.40;;;9.40;99.90;;;;;;4958085;28;20031;-92
2023/12/10 01:32:37;;;;;;;35.30;5.50;;;9.40;99.90;;;;;;4956852;29;20094;-91
2023/12/10 01:35:04;;;;;;;18.85;5.45;;;9.40;99.90;;;;;;4955594;29;20034;-91
2023/12/10 01:37:29;;;;;;;27.13;5.00;;;9.50;99.90;;;;;;4947126;29;20054;-92
2023/12/10 01:40:14;;;;;;;32.22;6.13;;;9.50;99.90;;;;;;4934681;29;20039;-92
2023/12/10 01:42:42;;;;;;;31.92;5.10;;;9.40;99.90;;;;;;4938154;29;20383;-93
2023/12/10 01:45:27;;;;;;;36.25;4.85;;;9.50;99.90;;;;;;4954491;29;20075;-91
2023/12/10 01:48:15;;;;;;;42.97;7.75;;;9.40;99.90;;;;;;4973836;29;20035;-91
2023/12/10 01:50:44;;;;;;;26.17;6.13;;;9.50;99.90;;;;;;4969778;29;20154;-91
2023/12/10 01:53:25;;;;;;;28.42;5.53;;;9.60;99.90;;;;;;4967848;28;20232;-89
2023/12/10 01:56:13;;;;;;;33.38;6.05;;;9.60;99.90;;;;;;4970853;28;20035;-89
2023/12/10 01:58:58;;;;;;;31.60;6.68;;;9.50;99.90;;;;;;4957521;29;20027;-92
2023/12/10 02:01:25;;;;;;;28.98;5.40;;;9.60;99.90;;;;;;4945063;29;20035;-91
2023/12/10 02:04:10;;;;;;;36.60;6.05;;;9.70;99.90;;;;;;4936539;29;20035;-90
2023/12/10 02:06:57;;;;;;;41.90;6.28;;;9.60;99.90;;;;;;4945639;29;20023;-91
2023/12/10 02:09:24;;;;;;;28.83;5.47;;;9.70;99.90;;;;;;4955684;28;20035;-92
2023/12/10 02:11:50;;;;;;;36.97;5.57;;;9.60;99.90;;;;;;4955062;29;20058;-91
2023/12/10 02:14:31;;;;;;;36.10;6.57;;;9.50;99.90;;;;;;4957237;29;20495;-90
2023/12/10 02:17:08;;;;;;;;;;;9.50;99.90;;;;;;4940458;29;20035;-91
2023/12/10 02:19:35;;;;;;;29.88;5.88;;;9.40;99.90;;;;;;4955595;29;19907;-89
2023/12/10 02:22:23;;;;;;;31.02;4.88;;;9.40;99.90;;;;;;4954376;29;20053;-89
2023/12/10 02:24:54;;;;;;;35.35;6.45;;;9.30;99.90;;;;;;4956077;29;20062;-91
2023/12/10 02:27:42;;;;;;;29.70;5.68;;;9.40;99.90;;;;;;4955112;28;20026;-89
2023/12/10 02:30:09;;;;;;;29.92;6.05;;;8.70;99.90;;;;;;4956634;29;20123;-90
2023/12/10 02:32:57;;;;;;;39.90;6.32;;;9.40;99.90;;;;;;4956506;29;20455;-90
2023/12/10 02:35:23;;;;;;;33.03;6.22;;;9.30;99.90;;;;;;4962860;29;20023;-90
2023/12/10 02:37:49;;;;;;;32.85;6.07;;;9.40;99.90;;;;;;4955364;29;20651;-90
2023/12/10 02:40:33;;;;;;;41.65;7.90;;;9.40;99.90;;;;;;4953953;29;20055;-89
2023/12/10 02:42:59;;;;;;;41.53;6.03;;;9.40;99.90;;;;;;4955577;29;20113;-89
2023/12/10 02:45:25;;;;;;;39.55;5.55;;;9.40;99.90;;;;;;4955793;29;20035;-89
2023/12/10 02:47:51;;;;;;;42.50;6.70;;;9.50;99.90;;;;;;4969518;29;20512;-88
2023/12/10 02:50:35;;;;;;;38.92;5.55;;;9.50;99.90;;;;;;4961831;29;20539;-88
2023/12/10 02:53:00;;;;;;;43.33;6.75;;;9.50;99.90;;;;;;4942368;29;20039;-90
2023/12/10 02:55:26;;;;;;;42.35;6.25;;;9.50;99.90;;;;;;4936666;29;20448;-88
2023/12/10 02:57:51;;;;;;;40.00;5.68;;;9.70;99.90;;;;;;4936663;29;20024;-87
2023/12/10 03:00:17;;;;;;;40.10;6.00;;;9.70;99.90;;;;;;4935979;29;20023;-87
2023/12/10 03:02:43;;;;;;;25.73;5.93;;;9.70;99.90;;;;;;4952822;29;20035;-87
2023/12/10 03:05:08;;;;;;;31.98;6.25;;;9.70;99.90;;;;;;4940886;29;20479;-86
2023/12/10 03:07:34;;;;;;;39.33;5.60;;;9.70;99.90;;;;;;4933851;29;20367;-88
2023/12/10 03:10:00;;;;;;;37.40;5.68;;;9.70;99.90;;;;;;4955325;28;20024;-89
2023/12/10 03:12:26;;;;;;;39.65;5.40;;;9.80;99.90;;;;;;4955149;28;20042;-88
2023/12/10 03:14:52;;;;;;;35.35;5.82;;;9.70;99.90;;;;;;4953238;29;20372;-89
2023/12/10 03:17:17;;;;;;;33.53;5.70;;;9.70;99.90;;;;;;4949613;29;20035;-87
2023/12/10 03:19:44;;;;;;;28.60;5.10;;;9.70;99.90;;;;;;4953807;29;20070;-87
2023/12/10 03:22:11;;;;;;;33.38;6.03;;;9.70;99.90;;;;;;4952937;29;20042;-87
2023/12/10 03:24:36;;;;;;;37.30;5.65;;;9.70;99.90;;;;;;4954518;29;20478;-89
2023/12/10 03:27:02;;;;;;;30.55;5.55;;;9.70;99.90;;;;;;4939402;29;20044;-89
2023/12/10 03:29:29;;;;;;;37.22;5.88;;;9.70;99.90;;;;;;4938342;29;20078;-90
2023/12/10 03:31:54;;;;;;;31.23;5.60;;;9.70;99.90;;;;;;4953812;29;20039;-88
2023/12/10 03:34:20;;;;;;;37.58;6.28;;;9.70;99.90;;;;;;4954641;29;20029;-89
2023/12/10 03:36:46;;;;;;;32.67;4.82;;;9.70;99.90;;;;;;4954887;29;20066;-88
2023/12/10 03:39:30;;;;;;;32.70;5.28;;;9.80;99.90;;;;;;4954481;29;20058;-88
2023/12/10 03:42:11;;;;;;;37.90;6.15;;;9.00;99.90;;;;;;4964662;28;20067;-86
2023/12/10 03:44:36;;;;;;;36.28;6.78;;;9.80;99.90;;;;;;4954656;28;20027;-86
2023/12/10 03:47:25;;;;;;;31.00;5.15;;;9.80;99.90;;;;;;4952635;29;20031;-86
2023/12/10 03:50:09;;;;;;;37.67;5.93;;;9.40;99.90;;;;;;4953466;29;20090;-88
2023/12/10 03:52:34;;;;;;;38.05;5.53;;;9.90;99.90;;;;;;4937584;29;20043;-88
2023/12/10 03:55:17;;;;;;;32.22;5.32;;;9.90;99.90;;;;;;5009430;23;20509;-88
2023/12/10 03:58:02;;;;;;;37.85;5.07;;;9.60;99.90;;;;;;4953404;28;20059;-88
2023/12/10 04:00:49;;;;;;;25.58;4.65;;;9.90;99.90;;;;;;4952309;29;20521;-87
2023/12/10 04:03:15;;;;;;;34.65;5.05;;;9.50;99.90;;;;;;4953682;29;20019;-88
2023/12/10 04:06:01;;;;;;;30.88;6.07;;;10.00;99.90;;;;;;4952514;29;20047;-87
2023/12/10 04:08:26;;;;;;;35.72;5.03;;;9.90;99.90;;;;;;4952355;29;20043;-87
2023/12/10 04:11:10;;;;;;;36.47;6.28;;;10.00;99.90;;;;;;4953848;29;20436;-86
2023/12/10 04:13:51;;;;;;;31.55;6.28;;;10.00;99.90;;;;;;4955263;28;20043;-90
2023/12/10 04:19:08;;;;;;;34.20;6.10;;;10.00;99.90;;;;;;4959666;23;20090;-87
2023/12/10 04:21:33;;;;;;;31.95;6.10;;;10.00;99.90;;;;;;4956676;28;20031;-88
2023/12/10 04:24:05;;;;;;;28.65;5.38;;;10.00;99.90;;;;;;4957225;29;20047;-87
2023/12/10 04:26:30;;;;;;;34.42;5.80;;;10.00;99.90;;;;;;4958127;29;20160;-86
2023/12/10 04:29:14;;;;;;;29.88;5.30;;;10.00;99.90;;;;;;4957487;29;20543;-87
2023/12/10 04:31:40;;;;;;;28.38;5.28;;;9.90;99.90;;;;;;4958370;29;20034;-87
2023/12/10 04:34:05;;;;;;;40.35;6.68;;;9.90;99.90;;;;;;4953617;29;20384;-88
2023/12/10 04:36:50;;;;;;;35.10;5.95;;;10.00;99.90;;;;;;4946906;29;20030;-88
2023/12/10 04:39:16;;;;;;;22.95;5.22;;;10.00;99.90;;;;;;4938441;29;20416;-86
2023/12/10 04:41:41;;;;;;;31.55;5.95;;;10.00;99.90;;;;;;4946887;29;20103;-87
2023/12/10 04:44:26;;;;;;;35.63;6.43;;;10.00;99.90;;;;;;4957936;29;20031;-88
2023/12/10 04:46:51;;;;;;;30.13;5.15;;;9.90;99.90;;;;;;4955445;29;20034;-89
2023/12/10 04:49:17;;;;;;;27.25;5.00;;;9.90;99.90;;;;;;4957432;29;20023;-87
2023/12/10 04:51:58;;;;;;;37.08;5.65;;;9.90;99.90;;;;;;4956074;29;20050;-88
2023/12/10 04:54:24;;;;;;;28.75;5.55;;;10.40;99.90;;;;;;4956822;29;20097;-87
2023/12/10 04:56:49;;;;;;;34.47;5.93;;;10.00;99.90;;;;;;4957390;28;20510;-87
2023/12/10 04:59:15;;;;;;;23.85;4.82;;;10.00;99.90;;;;;;4954781;28;20050;-87
2023/12/10 05:01:41;;;;;;;27.73;4.95;;;10.00;99.90;;;;;;4946931;29;20094;-85
2023/12/10 05:04:19;;;;;;;28.70;5.30;;;10.00;99.90;;;;;;4957616;28;20050;-87
2023/12/10 05:06:44;;;;;;;40.42;8.25;;;9.90;99.90;;;;;;4954469;29;20098;-90
2023/12/10 05:09:28;;;;;;;27.63;4.60;;;9.90;99.90;;;;;;4957268;29;20023;-89
2023/12/10 05:11:54;;;;;;;28.65;4.75;;;9.90;99.90;;;;;;4955769;29;20031;-87
2023/12/10 05:14:38;;;;;;;23.65;4.88;;;9.90;99.90;;;;;;4955472;29;20038;-89
2023/12/10 05:17:04;;;;;;;30.80;5.68;;;9.80;99.90;;;;;;4956594;28;20051;-88
2023/12/10 05:19:31;;;;;;;25.73;4.93;;;9.90;99.90;;;;;;4954502;29;20046;-89
2023/12/10 05:21:56;;;;;;;33.45;6.53;;;9.90;99.90;;;;;;4941393;28;20376;-87
2023/12/10 05:24:22;;;;;;;26.75;5.15;;;9.90;99.90;;;;;;4938897;29;20023;-89
2023/12/10 05:26:48;;;;;;;36.05;5.75;;;9.90;99.90;;;;;;4940158;29;20063;-88
2023/12/10 05:29:34;;;;;;;30.55;5.35;;;9.80;99.90;;;;;;4940918;29;20027;-85
2023/12/10 05:32:00;;;;;;;35.65;5.15;;;10.30;99.90;;;;;;4943865;29;20047;-88
2023/12/10 05:34:25;;;;;;;29.95;4.70;;;9.80;99.90;;;;;;4953300;28;20031;-85
2023/12/10 05:37:09;;;;;;;31.70;6.28;;;9.80;99.90;;;;;;4954162;29;20046;-84
2023/12/10 05:39:36;;;;;;;24.45;4.75;;;9.80;99.90;;;;;;4954051;29;20019;-88
2023/12/10 05:42:01;;;;;;;32.17;5.88;;;9.80;99.90;;;;;;4956965;29;20491;-88
2023/12/10 05:44:27;;;;;;;36.42;6.18;;;9.70;99.90;;;;;;4955836;29;20041;-86
2023/12/10 05:47:11;;;;;;;30.85;5.15;;;9.00;99.90;;;;;;4954866;29;20042;-88
2023/12/10 05:49:49;;;;;;;35.70;6.10;;;9.60;99.90;;;;;;4937822;29;20106;-87
2023/12/10 05:52:15;;;;;;;39.85;6.97;;;8.20;99.90;;;;;;4936807;29;20146;-87
2023/12/10 05:54:41;;;;;;;39.53;5.78;;;9.60;99.90;;;;;;4940779;28;20151;-88
2023/12/10 05:57:06;;;;;;;25.35;4.82;;;9.60;99.90;;;;;;4956020;29;20079;-88
2023/12/10 05:59:50;;;;;;;32.08;6.78;;;9.50;99.90;;;;;;4948601;29;20032;-87
2023/12/10 06:02:16;;;;;;;26.05;5.03;;;9.60;99.90;;;;;;4953195;29;20019;-87
2023/12/10 06:04:42;;;;;;;31.65;5.18;;;9.50;99.90;;;;;;4954789;29;20037;-86
2023/12/10 06:07:26;;;;;;;35.13;5.63;;;9.50;99.90;;;;;;4955446;29;20075;-88
2023/12/10 06:09:51;;;;;;;36.00;5.03;;;9.50;99.90;;;;;;4955800;29;20023;-87
2023/12/10 06:12:17;;;;;;;40.63;6.43;;;9.60;99.90;;;;;;4955349;29;20039;-87
2023/12/10 06:15:01;;;;;;;25.40;4.95;;;9.60;99.90;;;;;;4956094;29;20035;-87
2023/12/10 06:17:27;;;;;;;36.28;5.57;;;9.60;99.90;;;;;;4955763;28;20031;-87
2023/12/10 06:19:53;;;;;;;24.63;4.68;;;9.70;99.90;;;;;;4956081;29;20107;-87
2023/12/10 06:22:18;;;;;;;38.83;6.20;;;9.70;99.90;;;;;;4955517;23;20479;-88
2023/12/10 06:24:53;;;;;;;31.05;5.32;;;9.70;99.90;;;;;;4942459;29;20551;-87
2023/12/10 06:27:19;;;;;;;23.15;5.32;;;9.80;99.90;;;;;;4945388;29;20052;-87
2023/12/10 06:29:45;;;;;;;31.48;5.00;;;9.70;99.90;;;;;;4942107;29;20065;-86
2023/12/10 06:32:10;;;;;;;47.72;5.95;;;9.70;99.90;;;;;;4953982;29;20039;-87
2023/12/10 06:34:36;;;;;;;32.20;5.85;;;9.80;99.90;;;;;;4955481;29;20086;-85
2023/12/10 06:37:04;;;;;;;31.55;5.10;;;9.80;99.90;;;;;;4954910;29;20023;-88
2023/12/10 06:39:30;;;;;;;24.52;4.10;;;9.70;99.90;;;;;;4955275;29;20023;-87
2023/12/10 06:42:17;;;;;;;34.50;5.13;;;9.80;99.90;;;;;;4954280;28;20011;-90
2023/12/10 06:44:43;;;;;;;28.23;4.63;;;9.80;99.90;;;;;;4954734;29;20081;-88
2023/12/10 06:47:09;;;;;;;28.17;5.60;;;9.80;99.90;;;;;;4950825;29;20121;-88
2023/12/10 06:49:52;;;;;;;29.83;5.03;;;9.80;99.90;;;;;;4953859;29;20035;-88
2023/12/10 06:52:19;;;;;;;18.73;4.53;;;9.70;99.90;;;;;;4954770;29;20055;-86
2023/12/10 06:54:45;;;;;;;30.75;5.07;;;9.80;99.90;;;;;;4953208;29;20053;-87
2023/12/10 06:57:29;;;;;;;29.73;4.68;;;9.80;99.90;;;;;;4954704;29;20336;-86
2023/12/10 06:59:56;;;;;;;25.05;6.60;;;9.70;99.90;;;;;;4954956;29;20027;-89
2023/12/10 07:02:22;;;;;;;27.80;4.53;;;9.70;99.90;;;;;;4955332;29;20019;-87
2023/12/10 07:05:04;;;;;;;31.27;5.32;;;9.70;99.90;;;;;;4954992;29;20027;-88
2023/12/10 07:07:30;;;;;;;25.23;4.97;;;9.70;99.90;;;;;;4939674;29;20395;-87
2023/12/10 07:09:55;;;;;;;21.67;4.15;;;9.70;99.90;;;;;;4936240;28;20032;-87
2023/12/10 07:12:36;;;;;;;23.63;4.75;;;9.70;99.90;;;;;;4950786;29;20039;-87
2023/12/10 07:15:01;;;;;;;;;;;9.70;99.90;;;;;;4953967;29;20023;-86
2023/12/10 07:17:27;;;;;;;23.05;3.95;;;9.70;99.90;;;;;;4958177;29;20358;-87
2023/12/10 07:19:54;;;;;;;23.98;5.03;;;9.70;99.90;;;;;;4959829;29;20043;-86
2023/12/10 07:22:19;;;;;;;27.88;4.95;;;9.70;99.90;;;;;;4953607;29;20051;-86
2023/12/10 07:24:45;;;;;;;22.80;4.45;;;9.70;99.90;;;;;;4954532;29;20167;-86
2023/12/10 07:27:11;;;;;;;22.70;4.00;;;9.70;99.90;;;;;;4948369;29;20517;-84
2023/12/10 07:29:36;;;;;;;29.67;5.75;;;9.70;99.90;;;;;;4953368;29;20058;-86
2023/12/10 07:32:02;;;;;;;23.48;4.28;;;9.70;99.90;;;;;;4952657;29;20443;-86
2023/12/10 07:34:28;;;;;;;39.03;6.03;;;9.70;99.90;;;;;;4953717;29;20031;-85
2023/12/10 07:36:53;;;;;;;31.20;4.45;;;9.70;99.90;;;;;;4952942;29;20451;-86
2023/12/10 07:39:19;;;;;;;25.45;4.18;;;9.70;99.90;;;;;;4954394;29;20379;-89
2023/12/10 07:41:44;;;;;;;29.70;4.50;;;9.70;99.90;;;;;;4938102;29;20118;-86
2023/12/10 07:44:10;;;;;;;27.60;4.40;;;9.70;99.90;;;;;;4935794;29;20110;-90
2023/12/10 07:46:36;;;;;;;24.13;4.97;;;9.70;99.90;;;;;;4936296;29;20480;-90
2023/12/10 07:49:01;;;;;;;23.25;6.28;;;9.70;99.90;;;;;;4957935;28;20126;-91
2023/12/10 07:51:27;;;;;;;41.65;5.00;;;9.70;99.90;;;;;;4957255;29;20039;-90
2023/12/10 07:53:53;;;;;;;29.63;5.20;;;9.60;99.90;;;;;;4948386;28;20047;-95
2023/12/10 07:56:18;;;;;;;34.88;5.50;;;9.60;99.90;;;;;;4936321;29;20035;-92
2023/12/10 07:58:44;;;;;;;23.02;5.45;;;9.60;99.90;;;;;;4954807;29;20074;-93
2023/12/10 08:01:11;;;;;;;30.85;5.00;;;9.60;99.90;;;;;;4957478;29;20041;-90
2023/12/10 08:03:36;;;;;;;24.52;4.82;;;9.70;99.90;;;;;;4955282;29;20464;-91
2023/12/10 08:06:02;;;;;;;28.52;6.85;;;9.70;99.90;;;;;;4948391;29;20035;-92
2023/12/10 08:08:28;;;;;;;31.08;4.50;;;9.70;99.90;;;;;;4951089;29;20028;-94
2023/12/10 08:10:53;;;;;;;25.67;4.15;;;9.60;99.90;;;;;;4948974;29;20099;-90
2023/12/10 08:13:19;;;;;;;34.22;4.82;;;9.70;99.90;;;;;;4955999;29;20047;-90
2023/12/10 08:15:45;;;;;;;25.15;4.18;;;9.70;99.90;;;;;;4952311;29;20046;-93
2023/12/10 08:18:10;;;;;;;34.38;6.68;;;9.60;99.90;;;;;;4953014;29;20042;-93
2023/12/10 08:20:36;;;;;;;29.02;4.93;;;9.60;99.90;;;;;;4955104;28;20040;-92
2023/12/10 08:23:02;;;;;;;36.80;5.75;;;9.70;99.90;;;;;;4956535;29;20058;-93
2023/12/10 08:25:27;;;;;;;28.83;4.25;;;9.60;99.90;;;;;;4956007;29;20062;-93
2023/12/10 08:27:53;;;;;;;22.60;4.22;;;9.70;99.90;;;;;;4954934;29;20066;-93
2023/12/10 08:30:19;;;;;;;26.63;4.93;;;9.70;99.90;;;;;;4950943;29;20039;-93
2023/12/10 08:32:45;;;;;;;25.65;5.10;;;9.70;99.90;;;;;;4954353;29;20035;-91
2023/12/10 08:35:11;;;;;;;28.92;5.25;;;9.70;99.90;;;;;;4954458;29;20703;-92
2023/12/10 08:37:38;;;;;;;28.80;4.95;;;9.70;99.90;;;;;;4954748;29;20059;-92
2023/12/10 08:40:06;;;;;;;29.23;4.63;;;9.70;99.90;;;;;;4941775;29;20031;-90
2023/12/10 08:42:32;;;;;;;23.58;4.43;;;9.70;99.90;;;;;;4958153;29;20027;-92
2023/12/10 08:44:58;;;;;;;44.08;6.93;;;9.70;99.90;;;;;;4954276;29;20027;-91
2023/12/10 08:47:32;;;;;;;28.52;5.32;;;9.80;99.90;;;;;;4954226;29;20118;-91
2023/12/10 08:49:58;;;;;;;29.00;4.75;;;9.80;99.90;;;;;;4955610;29;20062;-92
2023/12/10 08:52:48;;;;;;;28.52;5.28;;;9.80;99.90;;;;;;4946732;29;20514;-92
2023/12/10 08:55:14;;;;;;;31.23;4.88;;;9.80;99.90;;;;;;4945156;29;20118;-91
2023/12/10 08:57:55;;;;;;;23.45;3.88;;;9.80;99.90;;;;;;4946381;29;20487;-91
2023/12/10 09:00:20;;;;;;;31.33;5.20;;;9.70;99.90;;;;;;4944770;29;20110;-89
2023/12/10 09:02:59;;;;;;;23.92;4.25;;;9.70;99.90;;;;;;4917844;29;20130;-89
2023/12/10 09:05:25;;;;;;;25.27;4.40;;;9.70;99.90;;;;;;4970490;28;20046;-89
2023/12/10 09:08:15;;;;;;;19.38;4.25;;;9.70;99.90;;;;;;4961705;29;20031;-92
2023/12/10 09:10:42;;;;;;;21.85;4.13;;;9.60;99.90;;;;;;4959495;29;20031;-91
2023/12/10 09:13:26;;;;;;;19.50;3.70;;;9.70;99.90;;;;;;4957523;29;20042;-90
2023/12/10 09:15:51;;;;;;;29.33;5.32;;;9.70;99.90;;;;;;4953816;28;20100;-91
2023/12/10 09:18:30;;;;;;;26.15;4.53;;;9.70;99.90;;;;;;4952629;29;20040;-93
2023/12/10 09:21:11;;;;;;;24.00;4.32;;;9.70;99.90;;;;;;5023215;23;20051;-90
2023/12/10 09:23:47;;;;;;;24.20;4.57;;;9.70;99.90;;;;;;4941654;29;20034;-92
2023/12/10 09:26:26;;;;;;;22.75;3.63;;;9.70;99.90;;;;;;4957742;29;20035;-89
2023/12/10 09:28:58;;;;;;;22.30;4.28;;;9.60;99.90;;;;;;4960122;29;20027;-91
2023/12/10 09:31:36;;;;;;;26.77;5.38;;;9.60;99.90;;;;;;4954830;29;20058;-89
2023/12/10 09:34:02;;;;;;;26.42;5.18;;;9.70;99.90;;;;;;4959315;29;20035;-85
2023/12/10 09:36:58;;;;;;;20.88;3.70;;;9.80;99.90;;;;;;4951975;29;20038;-93
2023/12/10 09:43:24;;;;;;;22.02;4.38;;;9.80;99.90;;;;;;5095071;23;20055;-94
2023/12/10 09:48:49;;;;;;;20.08;4.00;;;9.80;99.90;;;;;;5411452;23;20275;-91
2023/12/10 09:51:27;;;;;;;29.25;5.50;;;9.80;99.90;;;;;;4932229;29;20043;-85
2023/12/10 09:53:53;;;;;;;25.63;4.82;;;9.80;99.90;;;;;;4952882;29;20050;-91
2023/12/10 09:56:21;;;;;;;26.35;5.00;;;8.30;99.90;;;;;;4953334;28;20031;-88
2023/12/10 09:58:47;;;;;;;25.38;4.80;;;9.80;99.90;;;;;;4962753;29;20047;-92
2023/12/10 10:01:13;;;;;;;21.38;4.32;;;9.80;99.90;;;;;;4957480;23;20097;-85
2023/12/10 10:06:58;;;;;;;;;;;;;;;;;;;;;
2023/12/10 10:09:36;;;;;;;26.65;4.95;;;9.80;99.90;;;;;;4944317;29;20051;-92
2023/12/10 10:12:03;;;;;;;22.70;3.78;;;10.30;99.90;;;;;;5666318;23;20028;-91
2023/12/10 10:25:06;;;;;;;22.45;3.92;;;9.80;99.90;;;;;;4793441;29;20747;-92
2023/12/10 10:33:42;;;;;;;23.50;3.88;;;9.90;99.90;;;;;;4965484;28;20063;-92
2023/12/10 10:43:39;;;;;;;28.10;5.03;;;9.70;99.90;;;;;;4943355;29;20090;-93
2023/12/10 10:53:00;;;;;;;20.65;3.95;;;9.90;99.90;;;;;;4768964;30;20320;-93
2023/12/10 11:05:31;;;;;;;30.35;4.82;;;10.10;99.90;;;;;;4964238;29;20392;-91
2023/12/10 11:11:02;;;;;;;25.30;5.28;;;10.20;99.90;;;;;;4959064;29;20082;-91
2023/12/10 11:13:49;;;;;;;29.85;4.47;;;10.30;99.90;;;;;;4949079;29;20472;-91
2023/12/10 11:16:42;;;;;;;29.70;4.18;;;10.20;99.90;;;;;;4942701;29;20048;-94
2023/12/10 11:19:28;;;;;;;22.40;4.93;;;10.30;99.90;;;;;;4946414;29;20082;-90
2023/12/10 11:22:07;;;;;;;30.30;4.95;;;10.30;99.90;;;;;;4958162;29;20027;-91
2023/12/10 11:27:46;;;;;;;22.27;3.60;;;10.40;99.90;;;;;;4957228;28;20041;-91
2023/12/10 11:30:13;;;;;;;22.00;3.45;;;10.40;99.90;;;;;;4960461;29;20388;-92
2023/12/10 11:32:47;;;;;;;29.95;4.10;;;10.40;99.90;;;;;;4973442;23;20067;-93
2023/12/10 11:35:19;;;;;;;18.42;3.45;;;10.50;99.90;;;;;;4927332;29;20032;-90
2023/12/10 11:38:04;;;;;;;20.00;3.78;;;9.20;99.90;;;;;;4932369;29;20096;-89
2023/12/10 11:40:45;;;;;;;36.03;4.88;;;10.50;99.90;;;;;;4934251;29;20091;-88
2023/12/10 11:43:13;;;;;;;18.85;3.95;;;10.40;99.90;;;;;;4925143;29;20091;-89
2023/12/10 11:45:47;;;;;;;15.00;3.25;;;10.40;99.90;;;;;;4931318;29;20027;-88
2023/12/10 11:48:12;;;;;;;23.25;3.88;;;10.50;99.90;;;;;;4934428;29;20027;-90
2023/12/10 11:50:54;;;;;;;20.42;3.88;;;10.40;99.90;;;;;;4934753;29;20543;-88
2023/12/10 11:53:25;;;;;;;18.08;3.05;;;10.00;99.90;;;;;;4924211;29;20040;-90
2023/12/10 11:56:07;;;;;;;26.48;3.97;;;10.40;99.90;;;;;;4930152;29;20024;-89
2023/12/10 11:58:36;;;;;;;18.02;3.65;;;10.30;99.90;;;;;;4931549;29;20027;-91
2023/12/10 12:01:03;;;;;;;26.27;4.47;;;10.30;99.90;;;;;;4923165;29;20031;-89
2023/12/10 12:03:48;;;;;;;;;;;;;;;;;;;;;
2023/12/10 12:06:14;;;;;;;15.63;3.35;;;10.40;99.90;;;;;;4918878;29;20387;-84
2023/12/10 12:08:39;;;;;;;17.85;4.55;;;10.40;99.90;;;;;;4926975;29;20115;-92
2023/12/10 12:11:17;;;;;;;19.90;4.43;;;10.50;99.90;;;;;;4928865;29;20036;-93
2023/12/10 12:13:43;;;;;;;15.32;3.28;;;10.20;99.90;;;;;;4930171;29;20048;-93
2023/12/10 12:16:12;;;;;;;16.52;3.78;;;10.50;99.90;;;;;;4935343;29;20028;-94
2023/12/10 12:18:44;;;;;;;25.98;4.10;;;9.90;99.90;;;;;;4932694;29;20031;-93
2023/12/10 12:21:30;;;;;;;24.38;4.68;;;10.00;99.90;;;;;;4937937;29;20035;-94
2023/12/10 12:24:21;;;;;;;19.73;4.35;;;10.60;99.90;;;;;;4936219;29;20462;-93
2023/12/10 12:26:49;;;;;;;22.88;4.38;;;10.60;99.90;;;;;;4948701;29;20042;-93
2023/12/10 12:29:34;;;;;;;25.17;4.30;;;10.60;99.90;;;;;;4937846;29;20506;-92
2023/12/10 12:32:04;;;;;;;30.23;4.68;;;10.60;99.90;;;;;;4921559;29;20044;-93
2023/12/10 12:34:48;;;;;;;22.42;4.65;;;10.60;99.90;;;;;;4938248;29;20032;-91
2023/12/10 12:37:13;;;;;;;28.73;5.45;;;10.60;99.90;;;;;;4945320;29;20079;-89
2023/12/10 12:39:39;;;;;;;25.63;4.40;;;10.70;99.90;;;;;;4934127;29;20392;-92
2023/12/10 12:42:18;;;;;;;34.80;6.10;;;10.70;99.90;;;;;;4921249;29;20028;-88
2023/12/10 12:45:08;;;;;;;27.70;4.93;;;10.60;99.90;;;;;;4919893;29;20032;-91
2023/12/10 12:47:52;;;;;;;25.40;5.40;;;10.10;99.90;;;;;;4926972;29;20019;-89
2023/12/10 12:55:15;;;;;;;28.50;5.32;;;10.60;99.90;;;;;;4877556;29;20132;-90
2023/12/10 12:57:59;;;;;;;23.40;5.93;;;10.60;99.90;;;;;;4880590;29;20037;-93
2023/12/10 13:00:49;;;;;;;45.15;7.13;;;10.60;99.90;;;;;;4877643;29;20513;-91
2023/12/10 13:03:33;;;;;;;42.00;6.53;;;10.20;99.90;;;;;;4874869;29;20056;-91
2023/12/10 13:05:59;;;;;;;46.65;6.63;;;10.60;99.90;;;;;;4875530;29;20512;-90
2023/12/10 13:08:43;;;;;;;34.92;5.63;;;10.00;99.90;;;;;;4876099;29;20123;-92
2023/12/10 13:11:31;;;;;;;32.28;6.57;;;10.60;99.90;;;;;;4876468;29;20052;-91
2023/12/10 13:14:46;;;;;;;41.53;6.38;;;10.50;99.90;;;;;;4874610;29;20025;-91
2023/12/10 13:17:38;;;;;;;38.42;6.68;;;10.00;99.90;;;;;;4880073;29;20052;-92
2023/12/10 13:20:19;;;;;;;35.08;6.60;;;10.50;99.90;;;;;;4863269;29;20037;-91
2023/12/10 13:23:10;;;;;;;48.03;8.20;;;10.20;99.90;;;;;;4878276;29;20446;-92
2023/12/10 13:26:06;;;;;;;51.47;8.70;;;10.50;99.90;;;;;;4921454;29;20020;-92
2023/12/10 13:28:50;;;;;;;41.97;6.93;;;10.00;99.90;;;;;;4934332;29;20050;-92
2023/12/10 13:31:16;;;;;;;53.05;8.20;;;10.60;99.90;;;;;;4941820;29;20387;-92
2023/12/10 13:34:00;;;;;;;47.85;7.32;;;10.00;99.90;;;;;;4929232;29;20082;-91
2023/12/10 13:36:35;;;;;;;;;;;;;;;;;;;;;
2023/12/10 13:39:15;;;;;;;41.90;8.50;;;10.60;99.90;;;;;;4929158;29;20038;-91
2023/12/10 13:41:59;;;;;;;48.22;8.73;;;10.70;99.90;;;;;;4934853;29;20031;-91
2023/12/10 13:44:24;;;;;;;47.00;8.35;;;10.70;99.90;;;;;;4931685;29;20137;-91
2023/12/10 13:47:08;;;;;;;42.15;8.13;;;11.00;99.90;;;;;;4930195;29;20024;-91
2023/12/10 13:49:53;;;;;;;37.38;8.32;;;10.70;99.90;;;;;;4924613;29;20119;-92
2023/12/10 13:52:21;;;;;;;54.55;8.73;;;10.60;99.90;;;;;;4932693;29;20040;-91
2023/12/10 13:54:53;;;;;;;43.50;7.63;;;10.70;99.90;;;;;;4929203;29;20036;-88
2023/12/10 13:57:26;;;;;;;46.15;7.70;;;10.60;99.90;;;;;;4933434;29;20035;-89
2023/12/10 13:59:52;;;;;;;51.42;8.05;;;10.60;99.90;;;;;;4936409;29;20027;-87
2023/12/10 14:02:29;;;;;;;54.30;9.07;;;10.60;99.90;;;;;;4927076;29;20031;-90
2023/12/10 14:04:56;;;;;;;44.67;9.18;;;10.20;99.90;;;;;;4922532;29;20060;-90
2023/12/10 14:18:49;;;;;;;45.42;7.97;;;10.70;99.90;;;;;;4736287;30;20056;-91
2023/12/10 14:22:56;;;;;;;;;;;;;;;;;;;;;
2023/12/10 15:18:45;;;;;;;27.35;7.32;;;10.60;99.90;;;;;;5973690;24;20049;-93
2023/12/10 15:21:45;;;;;;;;;;;;;;;;;;;;;
2023/12/10 15:29:04;;;;;;;18.65;5.60;;;10.10;99.90;;;;;;5952470;24;20019;-90
2023/12/10 15:35:43;;;;;;;25.45;5.50;;;10.10;99.90;;;;;;6225913;23;20043;-93
2023/12/10 15:38:20;;;;;;;27.15;6.25;;;10.50;99.90;;;;;;6227416;23;20009;-91
2023/12/10 15:41:00;;;;;;;16.83;3.80;;;10.50;99.90;;;;;;6233465;23;20053;-92
2023/12/10 15:43:28;;;;;;;16.15;4.78;;;10.50;99.90;;;;;;6336950;22;20019;-95
2023/12/10 15:46:03;;;;;;;28.75;5.60;;;10.50;99.90;;;;;;6364314;22;20018;-94
2023/12/10 15:49:00;;;;;;;;;;;;;;;;;;;;;
2023/12/10 15:59:48;;;;;;;;;;;;;;;;;;;;;
2023/12/10 16:03:03;;;;;;;21.65;4.05;;;10.30;99.90;;;;;;6294958;22;20049;-93